createdAt,value
2022-09-21T00:01:24.856Z,3.80
2022-09-21T00:03:54.279Z,3.80
2022-09-21T00:06:23.219Z,3.80
2022-09-21T00:08:50.775Z,3.00
2022-09-21T00:11:22.800Z,3.50
2022-09-21T00:13:53.510Z,3.50
2022-09-21T00:16:20.757Z,2.90
2022-09-21T00:18:47.965Z,3.30
2022-09-21T00:21:15.872Z,3.40
2022-09-21T00:23:43.281Z,4.10
2022-09-21T00:26:16.128Z,3.60
2022-09-21T00:31:14.230Z,3.90
2022-09-21T00:33:45.667Z,4.10
2022-09-21T00:36:18.823Z,3.70
2022-09-21T00:38:50.363Z,3.50
2022-09-21T00:41:16.879Z,4.10
2022-09-21T00:43:48.970Z,3.70
2022-09-21T00:46:27.935Z,3.70
2022-09-21T00:48:55.223Z,3.50
2022-09-21T00:51:22.071Z,3.30
2022-09-21T00:53:53.386Z,3.70
2022-09-21T00:56:43.638Z,3.90
2022-09-21T00:59:13.868Z,3.40
2022-09-21T01:01:42.962Z,3.60
2022-09-21T01:04:12.088Z,3.60
2022-09-21T01:06:40.913Z,3.20
2022-09-21T01:09:09.597Z,3.60
2022-09-21T01:11:48.319Z,3.10
2022-09-21T01:15:10.094Z,3.50
2022-09-21T01:18:02.646Z,3.30
2022-09-21T01:20:51.283Z,3.70
2022-09-21T01:24:07.623Z,3.40
2022-09-21T01:27:24.487Z,3.30
2022-09-21T01:30:17.364Z,3.60
2022-09-21T01:33:03.512Z,3.60
2022-09-21T01:35:47.744Z,3.10
2022-09-21T01:38:26.685Z,3.30
2022-09-21T01:41:00.959Z,3.30
2022-09-21T01:43:35.506Z,3.70
2022-09-21T01:46:04.916Z,3.10
2022-09-21T01:48:39.037Z,3.40
2022-09-21T01:51:10.786Z,3.30
2022-09-21T01:53:51.365Z,3.60
2022-09-21T01:56:42.042Z,3.30
2022-09-21T01:59:24.226Z,3.20
2022-09-21T02:02:05.537Z,3.20
2022-09-21T02:04:35.315Z,3.00
2022-09-21T02:07:03.204Z,2.90
2022-09-21T02:09:31.499Z,3.40
2022-09-21T02:12:01.463Z,3.10
2022-09-21T02:14:29.756Z,2.90
2022-09-21T02:17:07.853Z,3.00
2022-09-21T02:19:44.614Z,2.90
2022-09-21T02:22:22.626Z,3.30
2022-09-21T02:24:56.306Z,3.40
2022-09-21T02:27:51.839Z,3.50
2022-09-21T02:30:22.274Z,3.00
2022-09-21T02:33:23.935Z,3.40
2022-09-21T02:36:35.846Z,3.20
2022-09-21T02:39:10.808Z,2.90
2022-09-21T02:41:44.246Z,3.30
2022-09-21T02:44:33.859Z,3.00
2022-09-21T02:47:19.982Z,3.50
2022-09-21T02:49:57.140Z,2.90
2022-09-21T02:52:25.641Z,3.40
2022-09-21T02:54:53.856Z,3.20
2022-09-21T02:57:23.520Z,2.90
2022-09-21T02:59:52.550Z,3.10
2022-09-21T03:02:20.586Z,3.20
2022-09-21T03:04:50.112Z,3.00
2022-09-21T03:07:18.158Z,3.30
2022-09-21T03:09:46.871Z,2.70
2022-09-21T03:12:14.914Z,2.80
2022-09-21T03:14:42.965Z,2.70
2022-09-21T03:17:10.950Z,3.10
2022-09-21T03:19:38.871Z,3.10
2022-09-21T03:22:06.775Z,3.10
2022-09-21T03:24:46.893Z,2.90
2022-09-21T03:27:19.105Z,3.40
2022-09-21T03:29:47.982Z,3.00
2022-09-21T03:32:16.492Z,2.80
2022-09-21T03:34:44.708Z,2.80
2022-09-21T03:37:13.116Z,3.50
2022-09-21T03:39:47.669Z,2.70
2022-09-21T03:48:33.946Z,2.60
2022-09-21T03:51:37.018Z,3.20
2022-09-21T03:54:06.885Z,2.80
2022-09-21T03:56:37.767Z,3.00
2022-09-21T03:59:38.508Z,3.00
2022-09-21T04:02:10.755Z,3.60
2022-09-21T04:04:53.892Z,3.40
2022-09-21T04:08:16.561Z,3.20
2022-09-21T04:20:52.094Z,3.20
2022-09-21T04:21:43.342Z,3.20
2022-09-21T04:24:50.170Z,3.60
2022-09-21T04:27:19.260Z,3.00
2022-09-21T04:29:47.486Z,3.90
2022-09-21T04:32:15.783Z,3.00
2022-09-21T04:34:47.347Z,3.30
2022-09-21T04:37:17.803Z,2.80
2022-09-21T04:39:45.981Z,3.00
2022-09-21T04:49:35.161Z,3.60
2022-09-21T04:52:03.480Z,3.10
2022-09-21T04:54:31.733Z,3.30
2022-09-21T04:56:59.469Z,4.00
2022-09-21T04:59:27.345Z,3.30
2022-09-21T05:01:55.097Z,3.30
2022-09-21T05:04:22.925Z,3.50
2022-09-21T05:06:51.226Z,3.60
2022-09-21T05:09:37.698Z,3.10
2022-09-21T05:12:05.778Z,2.80
2022-09-21T05:14:33.696Z,3.20
2022-09-21T05:17:01.624Z,3.30
2022-09-21T05:19:29.462Z,3.90
2022-09-21T05:21:57.328Z,3.50
2022-09-21T05:24:25.156Z,3.90
2022-09-21T05:26:53.020Z,3.80
2022-09-21T05:29:21.325Z,3.80
2022-09-21T05:32:19.941Z,3.70
2022-09-21T05:35:15.097Z,3.60
2022-09-21T05:37:59.401Z,3.60
2022-09-21T05:40:39.777Z,3.70
2022-09-21T05:43:09.780Z,3.60
2022-09-21T05:45:47.715Z,3.40
2022-09-21T05:48:28.657Z,3.50
2022-09-21T05:51:43.203Z,3.20
2022-09-21T05:54:45.887Z,3.20
2022-09-21T05:57:41.616Z,3.50
2022-09-21T06:00:22.375Z,3.40
2022-09-21T06:03:32.748Z,3.20
2022-09-21T06:06:15.676Z,3.20
2022-09-21T06:08:45.765Z,3.40
2022-09-21T06:11:14.525Z,3.20
2022-09-21T06:16:50.535Z,3.60
2022-09-21T06:19:22.949Z,3.30
2022-09-21T06:21:53.191Z,2.80
2022-09-21T06:24:26.298Z,3.20
2022-09-21T06:26:57.942Z,3.10
2022-09-21T06:29:50.310Z,2.80
2022-09-21T06:32:26.143Z,3.20
2022-09-21T06:34:57.999Z,2.70
2022-09-21T06:37:28.312Z,3.00
2022-09-21T06:40:06.049Z,3.00
2022-09-21T06:42:41.881Z,3.20
2022-09-21T06:45:10.848Z,2.80
2022-09-21T06:58:49.366Z,2.60
2022-09-21T07:01:24.012Z,3.20
2022-09-21T07:04:09.575Z,3.30
2022-09-21T07:06:40.370Z,3.70
2022-09-21T07:12:42.492Z,3.60
2022-09-21T07:15:26.932Z,3.10
2022-09-21T07:19:10.267Z,2.50
2022-09-21T07:22:06.936Z,2.20
2022-09-21T07:33:50.812Z,2.40
2022-09-21T07:33:56.446Z,2.90
2022-09-21T07:48:14.824Z,2.50
2022-09-21T08:02:08.071Z,1.90
2022-09-21T08:05:04.348Z,1.90
2022-09-21T08:14:26.617Z,2.50
2022-09-21T08:17:30.467Z,4.80
2022-09-21T08:21:30.650Z,2.00
2022-09-21T08:24:51.655Z,1.90
2022-09-21T08:27:42.307Z,1.60
2022-09-21T08:34:46.869Z,1.80
2022-09-21T08:38:06.669Z,2.00
2022-09-21T08:45:18.097Z,2.30
2022-09-21T08:49:16.273Z,2.50
2022-09-21T08:57:04.023Z,1.60
2022-09-21T08:59:25.134Z,1.70
2022-09-21T09:00:04.259Z,2.00
2022-09-21T09:03:33.270Z,1.90
2022-09-21T09:09:49.653Z,1.80
2022-09-21T09:12:50.953Z,1.80
2022-09-21T09:16:03.299Z,1.70
2022-09-21T09:19:08.912Z,1.70
2022-09-21T09:22:15.243Z,2.20
2022-09-21T09:26:38.990Z,1.80
2022-09-21T09:29:52.597Z,1.40
2022-09-21T09:33:15.434Z,1.70
2022-09-21T09:41:04.476Z,1.40
2022-09-21T10:03:51.794Z,2.70
2022-09-21T10:07:43.061Z,2.30
2022-09-21T10:10:15.841Z,2.30
2022-09-21T10:23:33.227Z,2.00
2022-09-21T10:34:24.628Z,1.60
2022-09-21T10:38:23.886Z,1.90
2022-09-21T10:45:24.221Z,1.60
2022-09-21T10:48:25.503Z,1.50
2022-09-21T10:51:46.094Z,1.60
2022-09-21T10:57:42.007Z,1.60
2022-09-21T11:05:39.319Z,1.10
2022-09-21T11:08:16.283Z,1.20
2022-09-21T11:12:07.917Z,1.30
2022-09-21T11:15:02.652Z,1.50
2022-09-21T11:17:41.297Z,1.40
2022-09-21T11:20:15.174Z,1.50
2022-09-21T11:22:57.798Z,1.40
2022-09-21T11:25:37.393Z,1.20
2022-09-21T11:28:25.391Z,1.40
2022-09-21T11:31:26.317Z,1.10
2022-09-21T11:34:37.994Z,1.00
2022-09-21T11:38:18.895Z,1.50
2022-09-21T11:41:16.095Z,1.40
2022-09-21T11:45:08.315Z,1.20
2022-09-21T11:48:07.098Z,1.50
2022-09-21T11:50:40.821Z,1.30
2022-09-21T11:54:52.321Z,1.20
2022-09-21T11:57:43.977Z,1.10
2022-09-21T12:00:22.238Z,0.90
2022-09-21T12:03:35.629Z,1.10
2022-09-21T12:06:21.957Z,1.10
2022-09-21T12:09:18.290Z,1.00
2022-09-21T12:12:29.990Z,1.20
2022-09-21T12:15:11.085Z,1.10
2022-09-21T12:21:44.169Z,0.90
2022-09-21T12:24:22.491Z,1.00
2022-09-21T12:26:56.167Z,1.10
2022-09-21T12:29:47.564Z,0.90
2022-09-21T12:32:26.324Z,1.00
2022-09-21T12:34:59.320Z,0.90
2022-09-21T12:37:53.505Z,1.10
2022-09-21T12:40:34.107Z,1.20
2022-09-21T12:43:23.701Z,1.50
2022-09-21T12:46:02.806Z,1.70
2022-09-21T12:48:42.412Z,2.40
2022-09-21T12:51:25.238Z,1.90
2022-09-21T12:56:50.383Z,1.50
2022-09-21T12:59:37.631Z,2.30
2022-09-21T13:02:15.568Z,2.30
2022-09-21T13:05:06.514Z,2.50
2022-09-21T13:08:13.068Z,2.30
2022-09-21T13:10:51.749Z,2.80
2022-09-21T13:13:53.225Z,3.30
2022-09-21T13:16:39.195Z,4.00
2022-09-21T13:19:13.339Z,4.10
2022-09-21T13:21:45.821Z,3.80
2022-09-21T13:27:04.906Z,2.00
2022-09-21T13:30:03.346Z,1.70
2022-09-21T13:33:07.063Z,1.80
2022-09-21T13:36:02.588Z,1.40
2022-09-21T13:39:07.601Z,2.60
2022-09-21T13:41:59.400Z,2.30
2022-09-21T13:44:43.939Z,1.70
2022-09-21T13:47:46.204Z,2.20
2022-09-21T13:50:38.429Z,2.80
2022-09-21T13:53:35.321Z,2.90
2022-09-21T13:56:25.280Z,2.70
2022-09-21T13:58:57.422Z,2.40
2022-09-21T14:01:48.129Z,2.10
2022-09-21T14:04:39.640Z,1.60
2022-09-21T14:07:15.594Z,1.90
2022-09-21T14:09:59.224Z,1.50
2022-09-21T14:12:45.935Z,1.70
2022-09-21T14:15:22.375Z,2.30
2022-09-21T14:18:21.798Z,2.70
2022-09-21T14:21:43.597Z,1.80
2022-09-21T14:25:06.380Z,1.60
2022-09-21T14:30:08.432Z,1.60
2022-09-21T14:37:48.970Z,1.50
2022-09-21T14:40:51.341Z,1.70
2022-09-21T14:43:46.346Z,1.30
2022-09-21T14:47:27.437Z,1.20
2022-09-21T14:50:20.975Z,1.50
2022-09-21T14:54:05.104Z,1.40
2022-09-21T14:57:35.506Z,1.80
2022-09-21T15:00:30.668Z,2.90
2022-09-21T15:03:16.392Z,1.40
2022-09-21T15:05:56.977Z,1.30
2022-09-21T15:09:38.302Z,1.20
2022-09-21T15:12:20.129Z,1.90
2022-09-21T15:15:41.509Z,1.90
2022-09-21T15:18:23.789Z,1.70
2022-09-21T15:21:02.607Z,1.30
2022-09-21T15:23:47.714Z,1.80
2022-09-21T15:26:29.479Z,1.70
2022-09-21T15:29:11.517Z,1.30
2022-09-21T15:31:55.135Z,1.50
2022-09-21T15:34:24.951Z,1.50
2022-09-21T15:37:11.888Z,1.70
2022-09-21T15:39:41.456Z,1.50
2022-09-21T15:42:09.265Z,1.70
2022-09-21T15:44:39.633Z,2.30
2022-09-21T15:47:11.513Z,4.20
2022-09-21T15:49:39.913Z,2.60
2022-09-21T15:52:38.045Z,2.80
2022-09-21T15:55:16.149Z,2.60
2022-09-21T15:57:44.637Z,3.70
2022-09-21T16:00:16.014Z,3.20
2022-09-21T16:02:56.218Z,1.90
2022-09-21T16:05:25.709Z,1.60
2022-09-21T16:08:18.597Z,2.20
2022-09-21T16:10:46.780Z,2.20
2022-09-21T16:13:39.403Z,2.50
2022-09-21T16:16:16.846Z,3.80
2022-09-21T16:18:56.052Z,5.00
2022-09-21T16:21:34.892Z,7.00
2022-09-21T16:24:26.608Z,4.70
2022-09-21T16:27:03.053Z,3.70
2022-09-21T16:29:43.030Z,2.50
2022-09-21T16:32:26.561Z,2.00
2022-09-21T16:35:31.566Z,2.00
2022-09-21T16:37:59.454Z,2.20
2022-09-21T16:40:28.702Z,2.50
2022-09-21T16:42:56.924Z,2.50
2022-09-21T16:45:36.368Z,3.00
2022-09-21T16:48:08.348Z,3.50
2022-09-21T16:50:36.543Z,3.20
2022-09-21T16:53:04.965Z,3.70
2022-09-21T16:55:34.696Z,3.40
2022-09-21T16:58:05.580Z,3.30
2022-09-21T17:00:40.001Z,3.90
2022-09-21T17:03:07.993Z,4.50
2022-09-21T17:05:36.420Z,5.60
2022-09-21T17:08:09.418Z,9.50
2022-09-21T17:10:41.577Z,10.80
2022-09-21T17:13:10.362Z,10.80
2022-09-21T17:15:44.449Z,14.60
2022-09-21T17:18:15.649Z,16.70
2022-09-21T17:20:45.526Z,15.40
2022-09-21T17:23:14.391Z,12.30
2022-09-21T17:25:50.059Z,8.40
2022-09-21T17:28:30.852Z,6.90
2022-09-21T17:31:18.438Z,6.10
2022-09-21T17:33:48.019Z,5.90
2022-09-21T17:36:22.352Z,5.30
2022-09-21T17:38:50.488Z,5.10
2022-09-21T17:41:25.720Z,4.80
2022-09-21T17:44:14.212Z,9.50
2022-09-21T17:47:23.499Z,12.70
2022-09-21T17:49:52.298Z,13.30
2022-09-21T17:52:41.642Z,10.80
2022-09-21T17:55:13.790Z,9.30
2022-09-21T17:58:10.143Z,9.20
2022-09-21T18:01:02.542Z,12.00
2022-09-21T18:03:41.757Z,23.80
2022-09-21T18:06:11.443Z,36.70
2022-09-21T18:08:40.251Z,33.00
2022-09-21T18:12:01.966Z,29.20
2022-09-21T18:15:23.188Z,19.60
2022-09-21T18:18:43.300Z,21.40
2022-09-21T18:21:28.189Z,12.00
2022-09-21T18:24:21.844Z,15.30
2022-09-21T18:26:53.257Z,14.70
2022-09-21T18:29:46.241Z,8.20
2022-09-21T18:32:49.516Z,6.00
2022-09-21T18:36:10.202Z,5.20
2022-09-21T18:39:08.591Z,8.40
2022-09-21T18:42:05.041Z,10.00
2022-09-21T18:45:06.935Z,11.00
2022-09-21T18:47:55.339Z,9.00
2022-09-21T18:50:57.934Z,6.20
2022-09-21T18:53:50.426Z,6.00
2022-09-21T18:56:32.853Z,4.70
2022-09-21T18:59:18.902Z,4.80
2022-09-21T19:01:49.072Z,4.70
2022-09-21T19:04:33.062Z,4.70
2022-09-21T19:07:23.429Z,4.90
2022-09-21T19:10:12.330Z,5.80
2022-09-21T19:13:32.711Z,5.80
2022-09-21T19:16:20.554Z,4.70
2022-09-21T19:19:05.900Z,5.30
2022-09-21T19:21:55.351Z,4.70
2022-09-21T19:24:35.849Z,4.70
2022-09-21T19:27:41.295Z,5.00
2022-09-21T19:33:03.136Z,6.70
2022-09-21T19:35:39.531Z,4.40
2022-09-21T19:38:10.334Z,4.80
2022-09-21T19:40:52.031Z,4.60
2022-09-21T19:44:10.203Z,4.80
2022-09-21T19:47:17.468Z,5.10
2022-09-21T19:50:12.033Z,4.90
2022-09-21T19:52:49.096Z,4.50
2022-09-21T19:55:41.229Z,5.10
2022-09-21T19:58:33.784Z,4.90
2022-09-21T20:01:19.335Z,6.20
2022-09-21T20:04:02.793Z,5.00
2022-09-21T20:07:14.690Z,4.80
2022-09-21T20:13:23.639Z,4.60
2022-09-21T20:16:25.235Z,5.60
2022-09-21T20:19:53.568Z,4.90
2022-09-21T20:22:39.498Z,4.80
2022-09-21T20:25:17.066Z,5.00
2022-09-21T20:27:55.789Z,4.00
2022-09-21T20:30:35.216Z,3.20
2022-09-21T20:33:33.562Z,3.20
2022-09-21T20:36:03.557Z,3.30
2022-09-21T20:38:34.425Z,3.40
2022-09-21T20:41:05.161Z,3.40
2022-09-21T20:43:33.873Z,2.70
2022-09-21T20:46:03.869Z,3.20
2022-09-21T20:48:34.090Z,3.50
2022-09-21T20:51:06.674Z,3.60
2022-09-21T20:56:04.987Z,3.20
2022-09-21T20:58:36.305Z,4.10
2022-09-21T21:01:06.761Z,2.90
2022-09-21T21:03:35.157Z,3.30
2022-09-21T21:06:21.907Z,3.70
2022-09-21T21:08:52.408Z,3.10
2022-09-21T21:11:20.858Z,3.10
2022-09-21T21:14:33.101Z,2.60
2022-09-21T21:17:24.226Z,2.80
2022-09-21T21:19:53.559Z,2.90
2022-09-21T21:22:22.622Z,2.50
2022-09-21T21:24:52.150Z,3.00
2022-09-21T21:27:22.965Z,2.70
2022-09-21T21:29:53.746Z,2.90
2022-09-21T21:32:33.282Z,2.50
2022-09-21T21:35:05.086Z,3.20
2022-09-21T21:37:45.751Z,3.20
2022-09-21T21:40:18.944Z,3.40
2022-09-21T21:42:47.657Z,3.00
2022-09-21T21:45:15.912Z,3.10
2022-09-21T21:47:45.127Z,3.50
2022-09-21T21:50:13.497Z,3.00
2022-09-21T21:52:44.660Z,3.90
2022-09-21T21:55:13.216Z,3.20
2022-09-21T21:57:41.089Z,3.00
2022-09-21T22:00:12.833Z,3.20
2022-09-21T22:02:40.860Z,3.50
2022-09-21T22:05:11.650Z,3.20
2022-09-21T22:07:42.127Z,3.80
2022-09-21T22:10:15.230Z,3.20
2022-09-21T22:12:46.099Z,3.80
2022-09-21T22:15:17.419Z,3.90
2022-09-21T22:17:52.503Z,4.50
2022-09-21T22:20:20.883Z,4.90
2022-09-21T22:22:49.159Z,4.90
2022-09-21T22:25:17.121Z,4.90
2022-09-21T22:27:45.356Z,6.00
2022-09-21T22:30:16.272Z,5.10
2022-09-21T22:32:44.211Z,4.10
2022-09-21T22:35:12.741Z,6.40
2022-09-21T22:37:40.758Z,6.60
2022-09-21T22:40:09.854Z,5.60
2022-09-21T22:42:37.807Z,3.80
2022-09-21T22:45:06.499Z,3.80
2022-09-21T22:47:34.526Z,3.50
2022-09-21T22:50:02.438Z,3.30
2022-09-21T22:52:30.636Z,3.60
2022-09-21T22:54:58.523Z,3.30
2022-09-21T22:57:26.463Z,4.60
2022-09-21T22:59:54.581Z,14.50
2022-09-21T23:02:22.836Z,14.70
2022-09-21T23:04:50.837Z,12.00
2022-09-21T23:07:18.733Z,6.80
2022-09-21T23:09:46.792Z,4.60
2022-09-21T23:12:14.781Z,4.70
2022-09-21T23:14:42.793Z,3.70
2022-09-21T23:17:10.782Z,3.00
2022-09-21T23:19:38.807Z,3.30
2022-09-21T23:22:06.770Z,3.20
2022-09-21T23:24:35.102Z,3.40
2022-09-21T23:27:02.964Z,4.40
2022-09-21T23:29:30.904Z,4.40
2022-09-21T23:32:00.388Z,4.90
2022-09-21T23:34:28.344Z,6.00
2022-09-21T23:36:56.599Z,5.60
2022-09-21T23:39:33.768Z,4.40
2022-09-21T23:42:01.924Z,4.20
2022-09-21T23:44:29.800Z,3.40
2022-09-21T23:46:57.838Z,3.50
2022-09-21T23:49:25.904Z,3.00
2022-09-21T23:51:54.038Z,3.60
2022-09-21T23:54:22.197Z,3.50
2022-09-21T23:56:50.161Z,3.10
2022-09-21T23:59:18.297Z,3.30
